Time;durP1;ratioP1;P1;durP2;ratioP2;P2;SDS_P1;SDS_P2;PMS_P1;PMS_P2;Temp;Humidity;BMP_temperature;BMP_pressure;BME280_temperature;BME280_humidity;BME280_pressure;Samples;Min_cycle;Max_cycle;Signal;HPM_P1;HPM_P2
2021/05/05 00:01:11;;;;;;;;;;;14.10;71.10;;;;;;4194771;28;20055;-47
2021/05/05 00:03:32;;;;;;;0.00;0.00;;;14.10;71.10;;;;;;4194216;28;19967;-46
2021/05/05 00:05:53;;;;;;;0.00;0.00;;;14.10;71.10;;;;;;4194146;28;20056;-44
2021/05/05 00:08:15;;;;;;;;;;;14.10;71.10;;;;;;4194165;28;20410;-44
2021/05/05 00:10:36;;;;;;;;;;;14.10;71.20;;;;;;4194506;28;20816;-46
2021/05/05 00:12:57;;;;;;;0.00;0.00;;;14.10;71.30;;;;;;4193997;28;19924;-44
2021/05/05 00:15:20;;;;;;;0.20;0.20;;;14.10;71.20;;;;;;4193646;28;20050;-43
2021/05/05 00:17:41;;;;;;;0.00;0.00;;;14.10;71.30;;;;;;4194027;28;20415;-45
2021/05/05 00:20:04;;;;;;;0.00;0.00;;;14.10;71.30;;;;;;4192760;28;20558;-44
2021/05/05 00:22:25;;;;;;;0.00;0.00;;;14.10;71.30;;;;;;4193747;28;20045;-44
2021/05/05 00:24:47;;;;;;;1.23;1.17;;;14.10;71.40;;;;;;4193643;28;20056;-44
2021/05/05 00:27:08;;;;;;;0.00;0.00;;;14.10;71.40;;;;;;4193432;28;20055;-45
2021/05/05 00:29:29;;;;;;;;;;;14.00;71.30;;;;;;4194151;28;20045;-44
2021/05/05 00:31:50;;;;;;;0.00;0.00;;;14.10;71.40;;;;;;4193598;28;19956;-44
2021/05/05 00:34:11;;;;;;;0.00;0.00;;;14.00;71.30;;;;;;4193714;28;20079;-46
2021/05/05 00:36:32;;;;;;;0.00;0.00;;;14.10;71.50;;;;;;4193744;28;20044;-45
2021/05/05 00:38:53;;;;;;;0.00;0.00;;;14.00;71.40;;;;;;4193317;28;20040;-44
2021/05/05 00:41:17;;;;;;;0.00;0.00;;;14.00;71.40;;;;;;4192916;28;20058;-44
2021/05/05 00:43:38;;;;;;;0.00;0.00;;;14.00;71.50;;;;;;4193390;28;20140;-45
2021/05/05 00:45:59;;;;;;;;;;;14.00;71.40;;;;;;4193926;28;20479;-43
2021/05/05 00:48:21;;;;;;;0.00;0.00;;;14.00;71.50;;;;;;4193316;28;19924;-48
2021/05/05 00:50:43;;;;;;;0.98;0.98;;;14.00;71.40;;;;;;4193469;28;20396;-44
2021/05/05 00:53:04;;;;;;;0.00;0.00;;;14.00;72.40;;;;;;4192957;28;20056;-45
2021/05/05 00:55:24;;;;;;;0.00;0.00;;;14.00;71.50;;;;;;4192726;28;20046;-44
2021/05/05 00:57:48;;;;;;;0.00;0.00;;;14.00;71.60;;;;;;4192829;28;20048;-44
2021/05/05 01:00:12;;;;;;;0.00;0.00;;;13.90;71.50;;;;;;4193191;28;20044;-43
2021/05/05 01:02:34;;;;;;;0.10;0.10;;;13.90;71.60;;;;;;4191754;28;20479;-45
2021/05/05 01:04:56;;;;;;;0.00;0.00;;;13.90;71.60;;;;;;4191616;28;20079;-43
2021/05/05 01:07:18;;;;;;;0.52;0.52;;;13.90;71.60;;;;;;4191074;28;20040;-44
2021/05/05 01:09:43;;;;;;;0.00;0.00;;;13.90;71.60;;;;;;4193326;28;20102;-47
2021/05/05 01:12:05;;;;;;;0.00;0.00;;;13.90;71.60;;;;;;4192655;28;20060;-44
2021/05/05 01:14:27;;;;;;;0.00;0.00;;;13.90;71.60;;;;;;4192844;28;20055;-44
2021/05/05 01:16:49;;;;;;;;;;;13.90;71.50;;;;;;4193255;28;20502;-43
2021/05/05 01:19:10;;;;;;;0.00;0.00;;;13.90;71.60;;;;;;4191508;28;20392;-44
2021/05/05 01:21:31;;;;;;;0.00;0.00;;;13.90;71.50;;;;;;4193033;28;20072;-44
2021/05/05 01:23:52;;;;;;;0.00;0.00;;;13.90;71.60;;;;;;4176372;28;20045;-43
2021/05/05 01:26:13;;;;;;;0.00;0.00;;;13.90;71.70;;;;;;4174760;28;20143;-45
2021/05/05 01:28:36;;;;;;;0.00;0.00;;;13.90;71.70;;;;;;4176330;28;20131;-43
2021/05/05 01:30:57;;;;;;;0.10;0.10;;;13.80;71.50;;;;;;4184074;28;20141;-45
2021/05/05 01:33:19;;;;;;;0.00;0.00;;;13.80;71.50;;;;;;4192699;28;20059;-43
2021/05/05 01:35:40;;;;;;;;;;;13.80;71.70;;;;;;4192912;28;20132;-44
2021/05/05 01:38:02;;;;;;;0.00;0.00;;;13.80;71.60;;;;;;4192285;28;19920;-43
2021/05/05 01:40:26;;;;;;;0.00;0.00;;;13.80;71.60;;;;;;4192432;28;20514;-44
2021/05/05 01:42:48;;;;;;;0.00;0.00;;;13.80;71.70;;;;;;4192548;28;20052;-48
2021/05/05 01:45:10;;;;;;;0.00;0.00;;;13.80;71.70;;;;;;4192460;28;20048;-44
2021/05/05 01:47:31;;;;;;;0.00;0.00;;;13.80;71.70;;;;;;4192537;28;20162;-44
2021/05/05 01:49:52;;;;;;;;;;;13.80;71.80;;;;;;4192665;28;20052;-44
2021/05/05 01:52:15;;;;;;;0.20;0.20;;;13.80;71.80;;;;;;4192099;28;19967;-44
2021/05/05 01:54:38;;;;;;;0.00;0.00;;;13.80;71.80;;;;;;4192318;28;20078;-44
2021/05/05 01:57:21;;;;;;;0.00;0.00;;;13.80;71.80;;;;;;4191956;28;20056;-43
2021/05/05 01:59:44;;;;;;;0.00;0.00;;;13.80;71.90;;;;;;4190680;28;20057;-43
2021/05/05 02:02:05;;;;;;;0.00;0.00;;;13.80;72.80;;;;;;4190597;28;20075;-43
2021/05/05 02:04:26;;;;;;;0.00;0.00;;;13.80;71.90;;;;;;4190800;28;20044;-44
2021/05/05 02:06:54;;;;;;;0.00;0.00;;;13.80;72.00;;;;;;4191469;28;20483;-44
2021/05/05 02:09:25;;;;;;;0.00;0.00;;;13.70;71.90;;;;;;4191273;28;20048;-43
2021/05/05 02:11:48;;;;;;;0.00;0.00;;;13.80;72.00;;;;;;4190771;28;20051;-44
2021/05/05 02:14:10;;;;;;;26.00;0.88;;;13.70;72.00;;;;;;4190589;28;20044;-43
2021/05/05 02:16:31;;;;;;;0.00;0.00;;;13.70;72.00;;;;;;4192339;28;20063;-44
2021/05/05 02:18:52;;;;;;;0.30;0.30;;;13.70;72.00;;;;;;4175436;28;20134;-44
2021/05/05 02:21:14;;;;;;;0.00;0.00;;;13.70;71.90;;;;;;4173798;28;20810;-43
2021/05/05 02:23:36;;;;;;;0.00;0.00;;;13.70;71.90;;;;;;4175326;28;20045;-44
2021/05/05 02:25:57;;;;;;;0.00;0.00;;;13.70;72.00;;;;;;4175153;28;20056;-46
2021/05/05 02:28:20;;;;;;;1.13;0.85;;;13.70;72.10;;;;;;4188360;28;20450;-43
2021/05/05 02:31:07;;;;;;;0.00;0.00;;;13.70;72.10;;;;;;4185351;28;20406;-44
2021/05/05 02:33:29;;;;;;;0.00;0.00;;;13.70;72.50;;;;;;4190475;28;20056;-43
2021/05/05 02:35:50;;;;;;;0.10;0.10;;;13.70;72.10;;;;;;4191847;28;20445;-43
2021/05/05 02:38:11;;;;;;;0.00;0.00;;;13.70;72.10;;;;;;4191369;28;20535;-43
2021/05/05 02:40:33;;;;;;;0.00;0.00;;;13.70;72.10;;;;;;4190462;28;20075;-44
2021/05/05 02:42:54;;;;;;;0.00;0.00;;;13.70;72.10;;;;;;4190295;28;20475;-43
2021/05/05 02:45:16;;;;;;;;;;;13.70;72.10;;;;;;4192087;28;20491;-43
2021/05/05 02:47:38;;;;;;;0.00;0.00;;;13.70;72.20;;;;;;4190035;28;19928;-43
2021/05/05 02:49:59;;;;;;;0.00;0.00;;;13.70;72.10;;;;;;4191082;28;20056;-45
2021/05/05 02:52:22;;;;;;;0.00;0.00;;;13.70;72.20;;;;;;4191469;28;20143;-44
2021/05/05 02:54:44;;;;;;;0.00;0.00;;;13.60;72.10;;;;;;4191507;28;20068;-44
2021/05/05 02:57:06;;;;;;;0.00;0.00;;;13.60;72.10;;;;;;4191176;28;20048;-43
2021/05/05 02:59:27;;;;;;;0.00;0.00;;;13.60;72.10;;;;;;4191292;28;20383;-43
2021/05/05 03:01:49;;;;;;;0.10;0.10;;;13.60;72.10;;;;;;4191174;28;20060;-43
2021/05/05 03:04:10;;;;;;;0.00;0.00;;;13.60;72.10;;;;;;4189961;28;20072;-44
2021/05/05 03:06:31;;;;;;;0.10;0.10;;;13.60;72.10;;;;;;4191124;28;20040;-42
2021/05/05 03:08:52;;;;;;;0.25;0.25;;;13.60;72.10;;;;;;4191407;28;20055;-43
2021/05/05 03:11:13;;;;;;;0.00;0.00;;;13.60;72.10;;;;;;4191401;28;20044;-45
2021/05/05 03:13:34;;;;;;;2.25;1.38;;;13.60;73.00;;;;;;4191395;28;20137;-43
2021/05/05 03:15:56;;;;;;;;;;;13.60;72.20;;;;;;4191763;28;20037;-43
2021/05/05 03:18:17;;;;;;;0.00;0.00;;;13.60;72.30;;;;;;4191321;28;19924;-44
2021/05/05 03:20:38;;;;;;;0.00;0.00;;;13.50;72.10;;;;;;4191134;28;20110;-43
2021/05/05 03:22:59;;;;;;;0.00;0.00;;;13.50;72.10;;;;;;4190961;28;20121;-44
2021/05/05 03:25:20;;;;;;;0.00;0.00;;;13.50;72.10;;;;;;4191064;28;20056;-43
2021/05/05 03:27:41;;;;;;;0.00;0.00;;;13.50;72.10;;;;;;4189645;28;20569;-44
2021/05/05 03:30:04;;;;;;;0.00;0.00;;;13.50;72.30;;;;;;4191084;28;20055;-43
2021/05/05 03:32:25;;;;;;;0.15;0.15;;;13.50;72.30;;;;;;4190932;28;20048;-44
2021/05/05 03:34:47;;;;;;;0.85;0.85;;;13.50;72.30;;;;;;4191083;28;20130;-43
2021/05/05 03:37:08;;;;;;;0.00;0.00;;;13.50;72.40;;;;;;4190721;28;20121;-43
2021/05/05 03:39:30;;;;;;;0.00;0.00;;;13.50;72.50;;;;;;4191307;28;20055;-43
2021/05/05 03:41:50;;;;;;;0.00;0.00;;;13.50;72.50;;;;;;4191205;28;20068;-44
2021/05/05 03:44:11;;;;;;;0.00;0.00;;;13.50;72.50;;;;;;4191141;28;20056;-43
2021/05/05 03:46:33;;;;;;;0.00;0.00;;;13.50;72.50;;;;;;4190730;28;20079;-45
2021/05/05 03:48:54;;;;;;;0.00;0.00;;;13.50;72.50;;;;;;4191028;28;20087;-45
2021/05/05 03:51:16;;;;;;;10.18;1.35;;;13.50;72.60;;;;;;4190731;28;20129;-43
2021/05/05 03:53:37;;;;;;;0.00;0.00;;;13.50;72.50;;;;;;4174536;28;20052;-43
2021/05/05 03:55:58;;;;;;;0.00;0.00;;;13.50;72.50;;;;;;4186916;28;20098;-45
2021/05/05 03:58:19;;;;;;;0.00;0.00;;;13.40;72.50;;;;;;4191045;28;20085;-43
2021/05/05 04:00:40;;;;;;;0.60;0.60;;;13.40;72.50;;;;;;4190936;28;20129;-45
2021/05/05 04:03:01;;;;;;;0.95;0.95;;;13.40;72.60;;;;;;4190351;28;20560;-44
2021/05/05 04:05:22;;;;;;;0.00;0.00;;;13.40;73.50;;;;;;4190574;28;20076;-44
2021/05/05 04:07:44;;;;;;;0.00;0.00;;;13.40;72.60;;;;;;4190632;28;20072;-43
2021/05/05 04:10:06;;;;;;;0.30;0.30;;;13.40;72.60;;;;;;4190850;28;20842;-43
2021/05/05 04:12:29;;;;;;;0.00;0.00;;;13.40;72.60;;;;;;4190627;28;20067;-43
2021/05/05 04:15:09;;;;;;;0.00;0.00;;;13.40;72.60;;;;;;4190540;28;20122;-43
2021/05/05 04:17:48;;;;;;;0.00;0.00;;;13.50;72.50;;;;;;4190698;28;20135;-43
2021/05/05 04:20:28;;;;;;;0.00;0.00;;;13.60;72.10;;;;;;4190032;28;20052;-43
2021/05/05 04:23:07;;;;;;;0.00;0.00;;;13.70;71.70;;;;;;4190240;28;20798;-43
2021/05/05 04:25:44;;;;;;;0.00;0.00;;;13.70;71.40;;;;;;4190428;28;20491;-44
2021/05/05 04:28:05;;;;;;;0.00;0.00;;;13.70;71.10;;;;;;4190650;28;20075;-44
2021/05/05 04:30:26;;;;;;;;;;;13.70;71.00;;;;;;4190857;28;20125;-43
2021/05/05 04:32:47;;;;;;;0.00;0.00;;;13.80;70.90;;;;;;4191068;28;19931;-43
2021/05/05 04:35:10;;;;;;;0.00;0.00;;;13.80;71.00;;;;;;4193521;28;20048;-45
2021/05/05 04:37:31;;;;;;;0.47;0.47;;;13.80;71.00;;;;;;4193385;28;20052;-51
2021/05/05 04:39:52;;;;;;;0.10;0.10;;;13.70;71.00;;;;;;4193279;28;20044;-47
2021/05/05 04:42:13;;;;;;;0.00;0.00;;;13.70;71.00;;;;;;4193534;28;20048;-46
2021/05/05 04:44:35;;;;;;;0.00;0.00;;;13.70;71.00;;;;;;4193390;28;20056;-49
2021/05/05 04:46:56;;;;;;;;;;;13.70;71.10;;;;;;4193513;28;20053;-48
2021/05/05 04:49:17;;;;;;;22.07;1.37;;;13.70;71.20;;;;;;4193370;28;20325;-47
2021/05/05 04:51:39;;;;;;;0.00;0.00;;;13.80;71.30;;;;;;4193343;28;20048;-50
2021/05/05 04:53:59;;;;;;;0.00;0.00;;;13.90;70.60;;;;;;4193238;28;20048;-51
2021/05/05 04:56:21;;;;;;;0.00;0.00;;;14.00;70.30;;;;;;4193328;28;20533;-43
2021/05/05 04:58:42;;;;;;;0.00;0.00;;;14.00;70.00;;;;;;4193465;28;20056;-43
2021/05/05 05:01:03;;;;;;;0.00;0.00;;;14.00;70.00;;;;;;4193153;28;20048;-42
2021/05/05 05:03:24;;;;;;;0.00;0.00;;;14.00;70.00;;;;;;4193334;28;20068;-43
2021/05/05 05:05:45;;;;;;;0.00;0.00;;;14.00;70.10;;;;;;4192786;28;20048;-43
2021/05/05 05:08:06;;;;;;;1.30;1.25;;;14.00;70.80;;;;;;4192891;28;20048;-45
2021/05/05 05:10:27;;;;;;;0.00;0.00;;;14.10;70.90;;;;;;4192929;28;20044;-43
2021/05/05 05:12:49;;;;;;;0.00;0.00;;;14.10;70.80;;;;;;4190500;28;20120;-43
2021/05/05 05:15:11;;;;;;;0.08;0.08;;;14.10;70.70;;;;;;4192219;28;20518;-43
2021/05/05 05:17:32;;;;;;;0.00;0.00;;;14.10;70.70;;;;;;4191073;28;20055;-43
2021/05/05 05:19:53;;;;;;;0.00;0.00;;;14.10;70.80;;;;;;4192519;28;20045;-43
2021/05/05 05:22:14;;;;;;;0.00;0.00;;;14.00;70.60;;;;;;4184586;28;20048;-43
2021/05/05 05:24:37;;;;;;;0.00;0.00;;;14.00;70.80;;;;;;4176012;28;20048;-43
2021/05/05 05:26:58;;;;;;;0.00;0.00;;;14.00;70.90;;;;;;4175799;28;20049;-44
2021/05/05 05:29:20;;;;;;;0.00;0.00;;;13.90;70.90;;;;;;4176036;28;20049;-44
2021/05/05 05:31:41;;;;;;;0.00;0.00;;;13.90;71.10;;;;;;4176045;28;20048;-43
2021/05/05 05:34:02;;;;;;;0.00;0.00;;;13.90;71.00;;;;;;4174699;28;20055;-43
2021/05/05 05:36:23;;;;;;;0.00;0.00;;;13.80;71.00;;;;;;4178308;28;20425;-43
2021/05/05 05:38:44;;;;;;;0.00;0.00;;;13.80;71.20;;;;;;4192537;28;20666;-43
2021/05/05 05:41:05;;;;;;;0.00;0.00;;;13.80;71.30;;;;;;4192430;28;20406;-44
2021/05/05 05:43:26;;;;;;;0.00;0.00;;;13.80;71.40;;;;;;4192528;28;20055;-44
2021/05/05 05:45:48;;;;;;;0.15;0.15;;;13.80;71.40;;;;;;4192439;28;20474;-43
2021/05/05 05:48:11;;;;;;;0.00;0.00;;;13.80;71.50;;;;;;4192366;28;20048;-44
2021/05/05 05:50:32;;;;;;;0.32;0.32;;;13.80;71.50;;;;;;4192394;28;20076;-44
2021/05/05 05:52:53;;;;;;;0.00;0.00;;;13.80;71.60;;;;;;4192440;28;20052;-43
2021/05/05 05:55:16;;;;;;;0.00;0.00;;;13.80;71.50;;;;;;4192216;28;20760;-43
2021/05/05 05:57:37;;;;;;;0.00;0.00;;;13.70;71.50;;;;;;4192099;28;20514;-43
2021/05/05 05:59:59;;;;;;;0.00;0.00;;;13.80;71.70;;;;;;4192168;28;20067;-45
2021/05/05 06:02:21;;;;;;;0.20;0.20;;;13.70;71.50;;;;;;4192428;28;20054;-46
2021/05/05 06:04:42;;;;;;;0.00;0.00;;;13.80;72.40;;;;;;4192232;28;20410;-43
2021/05/05 06:07:03;;;;;;;0.00;0.00;;;13.70;72.70;;;;;;4191769;28;20048;-45
2021/05/05 06:09:24;;;;;;;21.55;3.50;;;13.80;72.50;;;;;;4191704;28;20090;-43
2021/05/05 06:11:46;;;;;;;0.00;0.00;;;13.70;72.10;;;;;;4191915;28;20080;-43
2021/05/05 06:14:06;;;;;;;0.00;0.00;;;13.70;72.70;;;;;;4192048;28;20178;-44
2021/05/05 06:16:27;;;;;;;0.55;0.55;;;13.70;71.50;;;;;;4191244;28;20127;-43
2021/05/05 06:18:49;;;;;;;0.32;0.32;;;13.70;70.90;;;;;;4191146;28;20064;-44
2021/05/05 06:21:10;;;;;;;0.00;0.00;;;13.70;70.20;;;;;;4191743;28;20041;-44
2021/05/05 06:23:31;;;;;;;1.92;1.40;;;13.70;69.70;;;;;;4191823;28;20062;-44
2021/05/05 06:25:52;;;;;;;0.00;0.00;;;13.70;69.50;;;;;;4191393;28;20059;-43
2021/05/05 06:28:13;;;;;;;0.00;0.00;;;13.70;69.00;;;;;;4180324;28;20392;-43
2021/05/05 06:30:34;;;;;;;0.00;0.00;;;13.80;68.70;;;;;;4190000;28;20453;-44
2021/05/05 06:32:55;;;;;;;0.00;0.00;;;13.80;68.20;;;;;;4185161;28;20076;-45
2021/05/05 06:35:18;;;;;;;0.00;0.00;;;13.80;67.80;;;;;;4190214;28;20080;-44
2021/05/05 06:37:39;;;;;;;0.00;0.00;;;13.90;67.50;;;;;;4190137;28;20495;-43
2021/05/05 06:40:01;;;;;;;0.20;0.20;;;13.90;67.10;;;;;;4191635;28;20080;-45
2021/05/05 06:42:21;;;;;;;;;;;13.90;66.80;;;;;;4191107;28;20072;-43
2021/05/05 06:44:42;;;;;;;0.00;0.00;;;13.90;66.70;;;;;;4191282;28;19924;-44
2021/05/05 06:47:03;;;;;;;;;;;13.90;66.80;;;;;;4191866;28;20074;-44
2021/05/05 06:49:25;;;;;;;0.00;0.00;;;13.80;66.60;;;;;;4189656;28;19939;-44
2021/05/05 06:51:47;;;;;;;0.00;0.00;;;13.80;66.70;;;;;;4174790;28;20118;-43
2021/05/05 06:54:08;;;;;;;0.57;0.57;;;13.80;66.40;;;;;;4174916;28;20059;-43
2021/05/05 06:56:30;;;;;;;0.00;0.00;;;13.80;66.10;;;;;;4174548;28;20515;-43
2021/05/05 06:58:51;;;;;;;0.00;0.00;;;13.80;65.80;;;;;;4174901;28;20518;-43
2021/05/05 07:01:12;;;;;;;0.05;0.05;;;13.80;65.70;;;;;;4177715;28;20048;-46
2021/05/05 07:03:32;;;;;;;0.43;0.43;;;13.80;65.80;;;;;;4189421;28;20044;-43
2021/05/05 07:05:53;;;;;;;0.80;0.80;;;13.90;65.50;;;;;;4182164;28;20049;-43
2021/05/05 07:08:15;;;;;;;0.10;0.10;;;13.80;65.10;;;;;;4191310;28;20048;-44
2021/05/05 07:10:36;;;;;;;0.00;0.00;;;13.90;65.10;;;;;;4191377;28;20045;-48
2021/05/05 07:12:57;;;;;;;0.00;0.00;;;13.90;64.80;;;;;;4174802;28;20491;-44
2021/05/05 07:15:18;;;;;;;0.00;0.00;;;13.90;64.60;;;;;;4174656;28;20045;-44
2021/05/05 07:17:39;;;;;;;;;;;13.80;64.60;;;;;;4174503;28;20044;-43
2021/05/05 07:20:00;;;;;;;0.00;0.00;;;13.80;64.30;;;;;;4174709;28;20006;-46
2021/05/05 07:22:22;;;;;;;0.45;0.45;;;13.80;64.30;;;;;;4188162;28;20041;-45
2021/05/05 07:24:44;;;;;;;0.10;0.10;;;13.80;64.40;;;;;;4188361;28;20491;-45
2021/05/05 07:27:06;;;;;;;0.00;0.00;;;13.80;64.40;;;;;;4188892;28;20110;-43
2021/05/05 07:29:30;;;;;;;0.00;0.00;;;13.80;64.50;;;;;;4190662;28;20045;-43
2021/05/05 07:31:51;;;;;;;0.00;0.00;;;13.70;64.40;;;;;;4190873;28;20445;-45
2021/05/05 07:34:14;;;;;;;0.00;0.00;;;13.70;64.60;;;;;;4188571;28;20044;-44
2021/05/05 07:36:34;;;;;;;0.00;0.00;;;13.60;65.70;;;;;;4186292;28;20068;-43
2021/05/05 07:39:16;;;;;;;0.00;0.00;;;13.60;65.00;;;;;;4190850;28;20447;-43
2021/05/05 07:44:47;;;;;;;0.00;0.00;;;13.50;65.40;;;;;;4174182;28;20099;-44
2021/05/05 07:47:12;;;;;;;0.35;0.35;;;13.50;65.50;;;;;;4173583;28;20049;-44
2021/05/05 07:49:41;;;;;;;0.00;0.00;;;13.50;65.60;;;;;;4174469;28;20056;-44
2021/05/05 07:52:02;;;;;;;0.00;0.00;;;13.50;65.80;;;;;;4185528;28;20524;-44
2021/05/05 07:54:22;;;;;;;0.00;0.00;;;13.50;66.10;;;;;;4189404;28;20131;-44
2021/05/05 07:56:43;;;;;;;0.00;0.00;;;13.40;66.20;;;;;;4187011;28;20056;-43
2021/05/05 07:59:04;;;;;;;1.70;1.60;;;13.40;66.40;;;;;;4190516;28;20052;-44
2021/05/05 08:01:29;;;;;;;0.88;0.80;;;13.40;66.50;;;;;;4190836;28;20056;-44
2021/05/05 08:03:53;;;;;;;0.00;0.00;;;13.50;66.60;;;;;;4189140;28;20491;-44
2021/05/05 08:06:14;;;;;;;0.00;0.00;;;13.50;66.70;;;;;;4187219;28;20410;-43
2021/05/05 08:08:35;;;;;;;0.00;0.00;;;13.50;66.80;;;;;;4178845;28;20059;-44
2021/05/05 08:10:57;;;;;;;0.30;0.30;;;13.50;67.00;;;;;;4177369;28;20044;-44
2021/05/05 08:13:18;;;;;;;4.00;1.85;;;13.40;67.10;;;;;;4177634;28;20049;-43
2021/05/05 08:15:39;;;;;;;1.65;1.13;;;13.40;67.40;;;;;;4189271;28;20053;-50
2021/05/05 08:18:01;;;;;;;0.00;0.00;;;13.40;67.60;;;;;;4193598;28;20045;-47
2021/05/05 08:20:21;;;;;;;;;;;13.30;67.60;;;;;;4193309;28;20037;-43
2021/05/05 08:22:45;;;;;;;0.47;0.47;;;13.30;67.60;;;;;;4177126;28;19968;-46
2021/05/05 08:25:07;;;;;;;0.03;0.03;;;13.30;67.80;;;;;;4192176;28;20056;-43
2021/05/05 08:27:29;;;;;;;0.00;0.00;;;13.30;67.80;;;;;;4193728;28;20490;-44
2021/05/05 08:29:52;;;;;;;0.00;0.00;;;13.30;67.80;;;;;;4192549;28;20062;-44
2021/05/05 08:32:14;;;;;;;0.00;0.00;;;13.30;67.80;;;;;;4193482;28;20052;-44
2021/05/05 08:34:35;;;;;;;0.52;0.52;;;13.30;67.80;;;;;;4177254;28;20048;-43
2021/05/05 08:36:57;;;;;;;0.00;0.00;;;13.30;67.90;;;;;;4189976;28;20052;-43
2021/05/05 08:39:18;;;;;;;0.00;0.00;;;13.30;68.00;;;;;;4192810;28;20135;-44
2021/05/05 08:41:39;;;;;;;;;;;13.30;68.10;;;;;;4193550;28;20040;-44
2021/05/05 08:44:00;;;;;;;0.00;0.00;;;13.30;68.10;;;;;;4193089;28;20379;-44
2021/05/05 08:46:23;;;;;;;0.00;0.00;;;13.30;68.20;;;;;;4193319;28;20040;-44
2021/05/05 08:48:44;;;;;;;0.73;0.73;;;13.30;68.40;;;;;;4193211;28;20074;-45
2021/05/05 08:51:08;;;;;;;0.00;0.00;;;13.30;68.60;;;;;;4193155;28;25033;-44
2021/05/05 08:53:29;;;;;;;0.00;0.00;;;13.30;68.70;;;;;;4193193;28;20064;-45
2021/05/05 08:55:50;;;;;;;0.00;0.00;;;13.30;68.80;;;;;;4193264;28;20040;-44
2021/05/05 08:58:10;;;;;;;0.63;0.63;;;13.30;68.80;;;;;;4193251;28;20465;-46
2021/05/05 09:00:35;;;;;;;0.00;0.00;;;13.30;68.90;;;;;;4193009;28;20044;-43
2021/05/05 09:02:58;;;;;;;0.00;0.00;;;13.30;68.90;;;;;;4192894;28;20054;-44
2021/05/05 09:05:50;;;;;;;0.00;0.00;;;13.30;68.90;;;;;;4192678;28;20139;-43
2021/05/05 09:08:11;;;;;;;0.00;0.00;;;13.40;68.90;;;;;;4193122;28;20483;-43
2021/05/05 09:10:33;;;;;;;0.00;0.00;;;14.00;67.30;;;;;;4192701;28;20052;-43
2021/05/05 09:12:55;;;;;;;0.00;0.00;;;14.60;64.40;;;;;;4192641;28;20133;-43
2021/05/05 09:15:25;;;;;;;0.00;0.00;;;15.30;62.10;;;;;;4192327;28;20044;-45
2021/05/05 09:17:48;;;;;;;0.00;0.00;;;15.90;60.00;;;;;;4192135;28;20111;-44
2021/05/05 09:20:18;;;;;;;0.00;0.00;;;16.40;58.60;;;;;;4192568;28;20048;-44
2021/05/05 09:22:42;;;;;;;0.00;0.00;;;16.90;57.50;;;;;;4193052;28;20060;-43
2021/05/05 09:25:05;;;;;;;0.00;0.00;;;17.30;56.40;;;;;;4192986;28;20074;-46
2021/05/05 09:27:26;;;;;;;0.17;0.17;;;17.70;55.40;;;;;;4192644;28;20049;-44
2021/05/05 09:29:49;;;;;;;0.00;0.00;;;18.00;54.80;;;;;;4192361;28;20102;-43
2021/05/05 09:32:12;;;;;;;0.47;0.47;;;18.30;54.00;;;;;;4190181;28;20051;-44
2021/05/05 09:34:34;;;;;;;0.00;0.00;;;18.50;53.30;;;;;;4191218;28;20044;-44
2021/05/05 09:36:58;;;;;;;0.00;0.00;;;18.50;53.30;;;;;;4192275;28;20502;-44
2021/05/05 09:39:26;;;;;;;0.00;0.00;;;18.50;53.90;;;;;;4192618;28;20052;-45
2021/05/05 09:41:47;;;;;;;0.00;0.00;;;18.40;53.40;;;;;;4192264;28;20045;-45
2021/05/05 09:44:09;;;;;;;0.00;0.00;;;18.20;53.70;;;;;;4192156;28;20153;-44
2021/05/05 09:46:40;;;;;;;0.10;0.10;;;18.10;53.90;;;;;;4192344;28;20486;-43
2021/05/05 09:49:25;;;;;;;0.00;0.00;;;17.80;54.40;;;;;;4191985;28;20056;-43
2021/05/05 09:51:48;;;;;;;0.00;0.00;;;17.80;54.60;;;;;;4191473;28;20048;-43
2021/05/05 09:54:09;;;;;;;0.73;0.73;;;17.80;54.90;;;;;;4192423;28;20109;-45
2021/05/05 09:56:30;;;;;;;0.00;0.00;;;17.80;55.00;;;;;;4176910;28;20123;-44
2021/05/05 09:58:51;;;;;;;;;;;17.80;54.90;;;;;;4175807;28;20053;-47
2021/05/05 10:01:21;;;;;;;0.00;0.00;;;17.70;55.20;;;;;;4175416;28;19929;-44
2021/05/05 10:03:43;;;;;;;0.00;0.00;;;17.50;55.50;;;;;;4174899;28;20049;-44
2021/05/05 10:06:26;;;;;;;0.00;0.00;;;17.30;55.90;;;;;;4183235;28;20049;-46
2021/05/05 10:08:50;;;;;;;0.00;0.00;;;17.20;56.40;;;;;;4175342;28;20049;-44
2021/05/05 10:11:12;;;;;;;0.00;0.00;;;17.10;56.90;;;;;;4180903;28;20105;-43
2021/05/05 10:13:33;;;;;;;0.00;0.00;;;16.90;57.10;;;;;;4182901;28;20131;-45
2021/05/05 10:15:54;;;;;;;0.00;0.00;;;16.90;57.30;;;;;;4175525;28;20072;-44
2021/05/05 10:18:15;;;;;;;0.00;0.00;;;17.10;57.20;;;;;;4174288;28;20491;-44
2021/05/05 10:20:44;;;;;;;0.00;0.00;;;17.10;57.00;;;;;;4179382;28;20139;-46
2021/05/05 10:23:06;;;;;;;0.00;0.00;;;17.20;56.80;;;;;;4191154;28;20045;-44
2021/05/05 10:25:27;;;;;;;0.00;0.00;;;17.10;56.70;;;;;;4182424;28;20032;-45
2021/05/05 10:27:50;;;;;;;0.00;0.00;;;17.20;56.60;;;;;;4191623;28;20052;-44
2021/05/05 10:30:15;;;;;;;0.08;0.08;;;17.20;56.40;;;;;;4186958;28;20067;-44
2021/05/05 10:32:37;;;;;;;0.00;0.00;;;17.20;56.40;;;;;;4191328;28;20167;-46
2021/05/05 10:34:58;;;;;;;0.00;0.00;;;17.10;56.40;;;;;;4191292;28;20052;-44
2021/05/05 10:37:19;;;;;;;0.00;0.00;;;17.10;56.40;;;;;;4191704;28;20089;-45
2021/05/05 10:39:42;;;;;;;0.00;0.00;;;17.00;56.60;;;;;;4191666;28;20059;-44
2021/05/05 10:42:13;;;;;;;0.00;0.00;;;16.90;56.80;;;;;;4190535;28;20582;-48
2021/05/05 10:44:37;;;;;;;0.00;0.00;;;16.90;57.00;;;;;;4190710;28;20048;-44
2021/05/05 10:47:17;;;;;;;0.00;0.00;;;16.90;57.00;;;;;;4190852;28;20056;-44
2021/05/05 10:50:03;;;;;;;0.00;0.00;;;16.90;56.60;;;;;;4174684;28;20084;-44
2021/05/05 10:52:26;;;;;;;0.00;0.00;;;16.80;56.70;;;;;;4181683;28;20079;-46
2021/05/05 10:54:52;;;;;;;0.00;0.00;;;16.70;56.80;;;;;;4191381;28;20139;-45
2021/05/05 10:57:13;;;;;;;0.38;0.38;;;16.80;56.80;;;;;;4191011;28;20044;-46
2021/05/05 11:00:12;;;;;;;0.00;0.00;;;16.80;56.60;;;;;;4191589;28;20048;-44
2021/05/05 11:02:47;;;;;;;0.00;0.00;;;16.90;56.40;;;;;;4190400;28;20793;-49
2021/05/05 11:05:11;;;;;;;0.10;0.10;;;16.90;56.20;;;;;;4187831;28;20114;-46
2021/05/05 11:07:47;;;;;;;0.00;0.00;;;16.90;56.10;;;;;;4182281;28;20045;-44
2021/05/05 11:10:08;;;;;;;0.00;0.00;;;17.00;55.90;;;;;;4190385;28;20049;-44
2021/05/05 11:12:40;;;;;;;0.00;0.00;;;16.90;55.80;;;;;;4187693;28;20512;-46
2021/05/05 11:15:02;;;;;;;0.00;0.00;;;16.90;55.80;;;;;;4190625;28;20402;-44
2021/05/05 11:17:30;;;;;;;0.80;0.80;;;16.80;56.10;;;;;;4182271;28;20051;-44
2021/05/05 11:19:51;;;;;;;0.00;0.00;;;16.80;56.40;;;;;;4191139;28;20048;-44
2021/05/05 11:22:42;;;;;;;0.00;0.00;;;16.80;56.60;;;;;;4188917;28;20052;-44
2021/05/05 11:25:19;;;;;;;0.20;0.20;;;16.80;56.50;;;;;;4190813;28;20045;-45
2021/05/05 11:27:46;;;;;;;0.00;0.00;;;16.70;56.40;;;;;;4184145;28;20139;-43
2021/05/05 11:30:42;;;;;;;0.05;0.05;;;16.70;56.20;;;;;;4190325;28;20480;-44
2021/05/05 11:33:04;;;;;;;0.00;0.00;;;16.80;55.80;;;;;;4182061;28;20047;-44
2021/05/05 11:35:26;;;;;;;0.00;0.00;;;16.90;55.70;;;;;;4184000;28;20052;-44
2021/05/05 11:37:47;;;;;;;;;;;17.00;55.50;;;;;;4190985;28;20048;-43
2021/05/05 11:40:10;;;;;;;0.00;0.00;;;17.00;55.40;;;;;;4190907;28;19924;-47
2021/05/05 11:42:33;;;;;;;0.00;0.00;;;17.00;55.50;;;;;;4192005;28;20102;-43
2021/05/05 11:45:04;;;;;;;;;;;17.10;55.50;;;;;;4193981;28;20061;-45
2021/05/05 11:47:27;;;;;;;0.00;0.00;;;17.20;55.20;;;;;;4194103;28;19932;-46
2021/05/05 11:49:52;;;;;;;0.00;0.00;;;17.30;55.10;;;;;;4194347;28;20101;-45
2021/05/05 11:52:21;;;;;;;0.00;0.00;;;17.30;55.00;;;;;;4182495;28;20053;-46
2021/05/05 11:54:43;;;;;;;0.00;0.00;;;17.20;55.20;;;;;;4192807;28;20098;-44
2021/05/05 11:57:05;;;;;;;0.00;0.00;;;17.10;55.40;;;;;;4177465;28;20130;-45
2021/05/05 11:59:26;;;;;;;0.00;0.00;;;16.90;55.50;;;;;;4179847;28;20407;-44
2021/05/05 12:01:49;;;;;;;0.32;0.32;;;16.70;55.80;;;;;;4194074;28;20044;-44
2021/05/05 12:04:16;;;;;;;0.00;0.00;;;16.70;56.10;;;;;;4193945;28;20415;-45
2021/05/05 12:06:56;;;;;;;0.00;0.00;;;16.70;56.20;;;;;;4193508;28;20052;-44
2021/05/05 12:09:23;;;;;;;0.00;0.00;;;16.70;56.10;;;;;;4190837;28;20036;-44
2021/05/05 12:11:44;;;;;;;0.10;0.10;;;16.80;55.90;;;;;;4193814;28;20048;-43
2021/05/05 12:14:05;;;;;;;0.30;0.30;;;16.90;56.10;;;;;;4179903;28;20521;-44
2021/05/05 12:16:27;;;;;;;0.55;0.55;;;16.90;56.20;;;;;;4175331;28;20586;-44
2021/05/05 12:18:50;;;;;;;0.00;0.00;;;17.00;56.30;;;;;;4177389;28;20052;-46
2021/05/05 12:21:13;;;;;;;0.00;0.00;;;17.10;56.40;;;;;;4184790;28;20486;-44
2021/05/05 12:23:40;;;;;;;0.05;0.05;;;17.10;56.30;;;;;;4193760;28;20075;-45
2021/05/05 12:26:12;;;;;;;0.00;0.00;;;17.10;56.20;;;;;;4193363;28;20097;-44
2021/05/05 12:28:36;;;;;;;;;;;17.10;56.30;;;;;;4193581;28;20067;-45
2021/05/05 12:30:58;;;;;;;0.50;0.50;;;17.20;56.40;;;;;;4190169;28;20299;-46
2021/05/05 12:33:21;;;;;;;2.30;1.27;;;17.20;56.10;;;;;;4193694;28;20056;-45
2021/05/05 12:35:43;;;;;;;0.00;0.00;;;17.20;56.30;;;;;;4193074;28;20044;-44